METAR AND TAF INFORMATION
METAR FOR EFIV
ADDS - METARS form results

(1651 UTC 15 July 2020)
Data provider http://aviationweather.gov/metar/data/
 
METAR text: EFIV 151650Z AUTO 21008KT CAVOK 18/07 Q1014
Conditions at: EFIV (IVALO , FI) observed 1650 UTC 15 July 2020
Temperature: 18.0°C (64°F)
Dewpoint: 7.0°C (45°F) [RH = 49%]
Pressure (altimeter): 29.94 inches Hg (1014.0 mb)
Winds: from the SSW (210 degrees) at 9 MPH (8 knots; 4.1 m/s)
Visibility: 6 or more miles (10+ km)
Ceiling: ceiling and visibility are OK
Clouds: unknown
Weather: no significant weather observed at this time

METAR text: EFIV 151620Z AUTO 17007KT 140V210 9999 VCSH //////CB 19/06 Q1014
Conditions at: EFIV (IVALO , FI) observed 1620 UTC 15 July 2020
Temperature: 19.0°C (66°F)
Dewpoint: 6.0°C (43°F) [RH = 43%]
Pressure (altimeter): 29.94 inches Hg (1014.0 mb)
Winds: from the S (170 degrees) at 8 MPH (7 knots; 3.6 m/s)
Visibility: 6 or more miles (10+ km)
Ceiling: unknown
Clouds: missing
Weather: VCSH  (showers in vicinity)

 AIRPORT MAP

 RUNWAY INFORMATION
Runway 04 Runway length 8199 ft Runway width 148 ft
Runway elevation 480 ft Runway displaced threshold 0 ft Runway heading 47
Runway 22 Runway length 8199 ft Runway width 148 ft
Runway elevation 463 ft Runway displaced threshold 0 ft Runway heading 227
Runway 08 Runway length 2625 ft Runway width 148 ft
Runway elevation 475 ft Runway displaced threshold 0 ft Runway heading 92
Runway 26 Runway length 2625 ft Runway width 148 ft
Runway elevation 468 ft Runway displaced threshold 0 ft Runway heading 272

 AIRPORT FREQUENCIES
Type ATIS Name ATIS Frequency 123.2 MHZ
Type TWR Name TWR Frequency 118 MHZ

 AIRPORT NEAR NAVIGATION AIDS
Type NDB Name Akujarvi Frequency 432 KHZ



Powered by Virtual Airlines Manager [v2.6.2]